sensor_id;sensor_type;location;lat;lon;timestamp;pressure;altitude;pressure_sealevel;temperature;humidity
8501;BME280;4288;48.484;10.024;2023-02-15T00:00:06;96944.56;;;-1.25;nan
8501;BME280;4288;48.484;10.024;2023-02-15T00:02:33;96944.81;;;-1.27;nan
8501;BME280;4288;48.484;10.024;2023-02-15T00:05:01;96937.78;;;-1.36;nan
8501;BME280;4288;48.484;10.024;2023-02-15T00:07:29;96938.56;;;-1.31;nan
8501;BME280;4288;48.484;10.024;2023-02-15T00:09:56;96938.78;;;-1.27;nan
8501;BME280;4288;48.484;10.024;2023-02-15T00:12:23;96931.22;;;-1.34;nan
8501;BME280;4288;48.484;10.024;2023-02-15T00:14:50;96939.84;;;-1.28;nan
8501;BME280;4288;48.484;10.024;2023-02-15T00:17:17;96933.56;;;-1.27;nan
8501;BME280;4288;48.484;10.024;2023-02-15T00:19:44;96934.59;;;-1.23;nan
8501;BME280;4288;48.484;10.024;2023-02-15T00:22:11;96935.94;;;-1.31;nan
8501;BME280;4288;48.484;10.024;2023-02-15T00:24:40;96925.88;;;-1.19;nan
8501;BME280;4288;48.484;10.024;2023-02-15T00:27:07;96935.91;;;-1.26;nan
8501;BME280;4288;48.484;10.024;2023-02-15T00:29:35;96927.06;;;-1.45;nan
8501;BME280;4288;48.484;10.024;2023-02-15T00:32:02;96928.38;;;-1.47;nan
8501;BME280;4288;48.484;10.024;2023-02-15T00:34:29;96930.22;;;-1.43;nan
8501;BME280;4288;48.484;10.024;2023-02-15T00:36:56;96924.75;;;-1.61;nan
8501;BME280;4288;48.484;10.024;2023-02-15T00:39:23;96923.63;;;-1.35;nan
8501;BME280;4288;48.484;10.024;2023-02-15T00:41:52;96925.72;;;-1.37;nan
8501;BME280;4288;48.484;10.024;2023-02-15T00:44:19;96922.81;;;-1.31;nan
8501;BME280;4288;48.484;10.024;2023-02-15T00:46:46;96921.00;;;-1.40;nan
8501;BME280;4288;48.484;10.024;2023-02-15T00:49:13;96921.00;;;-1.40;nan
8501;BME280;4288;48.484;10.024;2023-02-15T00:51:40;96921.25;;;-1.32;nan
8501;BME280;4288;48.484;10.024;2023-02-15T00:54:07;96924.66;;;-1.36;nan
8501;BME280;4288;48.484;10.024;2023-02-15T00:56:35;96911.56;;;-1.36;nan
8501;BME280;4288;48.484;10.024;2023-02-15T00:59:03;96916.28;;;-1.38;nan
8501;BME280;4288;48.484;10.024;2023-02-15T01:01:30;96915.78;;;-1.45;nan
8501;BME280;4288;48.484;10.024;2023-02-15T01:03:57;96910.00;;;-1.42;nan
8501;BME280;4288;48.484;10.024;2023-02-15T01:06:24;96915.78;;;-1.45;nan
8501;BME280;4288;48.484;10.024;2023-02-15T01:08:51;96913.97;;;-1.45;nan
8501;BME280;4288;48.484;10.024;2023-02-15T01:11:21;96911.13;;;-1.63;nan
8501;BME280;4288;48.484;10.024;2023-02-15T01:13:49;96908.75;;;-1.55;nan
8501;BME280;4288;48.484;10.024;2023-02-15T01:16:18;96907.97;;;-1.50;nan
8501;BME280;4288;48.484;10.024;2023-02-15T01:18:46;96904.31;;;-1.54;nan
8501;BME280;4288;48.484;10.024;2023-02-15T01:21:15;96903.47;;;-1.50;nan
8501;BME280;4288;48.484;10.024;2023-02-15T01:23:43;96906.34;;;-1.41;nan
8501;BME280;4288;48.484;10.024;2023-02-15T01:26:10;96902.13;;;-1.42;nan
8501;BME280;4288;48.484;10.024;2023-02-15T01:28:38;96899.06;;;-1.54;nan
8501;BME280;4288;48.484;10.024;2023-02-15T01:31:07;96897.47;;;-1.55;nan
8501;BME280;4288;48.484;10.024;2023-02-15T01:33:36;96891.69;;;-1.47;nan
8501;BME280;4288;48.484;10.024;2023-02-15T01:36:04;96892.75;;;-1.48;nan
8501;BME280;4288;48.484;10.024;2023-02-15T01:38:32;96891.22;;;-1.59;nan
8501;BME280;4288;48.484;10.024;2023-02-15T01:40:59;96886.53;;;-1.62;nan
8501;BME280;4288;48.484;10.024;2023-02-15T01:43:41;96885.00;;;-1.78;nan
8501;BME280;4288;48.484;10.024;2023-02-15T01:46:10;96875.06;;;-1.87;nan
8501;BME280;4288;48.484;10.024;2023-02-15T01:48:43;96882.09;;;-1.77;nan
8501;BME280;4288;48.484;10.024;2023-02-15T01:51:11;96883.44;;;-1.79;nan
8501;BME280;4288;48.484;10.024;2023-02-15T01:53:45;96883.44;;;-1.79;nan
8501;BME280;4288;48.484;10.024;2023-02-15T01:56:17;96890.25;;;-1.78;nan
8501;BME280;4288;48.484;10.024;2023-02-15T01:58:45;96876.34;;;-1.79;nan
8501;BME280;4288;48.484;10.024;2023-02-15T02:01:15;96877.16;;;-1.84;nan
8501;BME280;4288;48.484;10.024;2023-02-15T02:03:53;96871.94;;;-1.84;nan
8501;BME280;4288;48.484;10.024;2023-02-15T02:06:24;96877.69;;;-1.82;nan
8501;BME280;4288;48.484;10.024;2023-02-15T02:08:52;96872.19;;;-1.85;nan
8501;BME280;4288;48.484;10.024;2023-02-15T02:11:20;96874.03;;;-1.86;nan
8501;BME280;4288;48.484;10.024;2023-02-15T02:13:47;96869.78;;;-1.76;nan
8501;BME280;4288;48.484;10.024;2023-02-15T02:16:20;96868.72;;;-1.75;nan
8501;BME280;4288;48.484;10.024;2023-02-15T02:19:28;96872.38;;;-1.71;nan
8501;BME280;4288;48.484;10.024;2023-02-15T02:22:18;96877.91;;;-1.73;nan
8501;BME280;4288;48.484;10.024;2023-02-15T02:25:26;96874.03;;;-1.91;nan
8501;BME280;4288;48.484;10.024;2023-02-15T02:28:08;96873.25;;;-1.91;nan
8501;BME280;4288;48.484;10.024;2023-02-15T02:31:06;96876.41;;;-1.94;nan
8501;BME280;4288;48.484;10.024;2023-02-15T02:33:56;96871.41;;;-1.91;nan
8501;BME280;4288;48.484;10.024;2023-02-15T02:36:33;96869.56;;;-1.85;nan
8501;BME280;4288;48.484;10.024;2023-02-15T02:39:17;96866.25;;;-2.11;nan
8501;BME280;4288;48.484;10.024;2023-02-15T02:41:55;96859.13;;;-2.00;nan
8501;BME280;4288;48.484;10.024;2023-02-15T02:44:26;96859.94;;;-2.00;nan
8501;BME280;4288;48.484;10.024;2023-02-15T02:47:01;96859.94;;;-2.10;nan
8501;BME280;4288;48.484;10.024;2023-02-15T02:49:34;96860.72;;;-2.04;nan
8501;BME280;4288;48.484;10.024;2023-02-15T02:52:05;96858.84;;;-1.99;nan
8501;BME280;4288;48.484;10.024;2023-02-15T02:54:34;96853.16;;;-2.11;nan
8501;BME280;4288;48.484;10.024;2023-02-15T02:57:05;96858.34;;;-2.01;nan
8501;BME280;4288;48.484;10.024;2023-02-15T02:59:38;96852.63;;;-2.13;nan
8501;BME280;4288;48.484;10.024;2023-02-15T03:02:11;96847.66;;;-2.09;nan
8501;BME280;4288;48.484;10.024;2023-02-15T03:04:45;96854.44;;;-2.08;nan
8501;BME280;4288;48.484;10.024;2023-02-15T03:07:18;96851.59;;;-2.17;nan
8501;BME280;4288;48.484;10.024;2023-02-15T03:09:50;96846.03;;;-2.00;nan
8501;BME280;4288;48.484;10.024;2023-02-15T03:12:22;96851.00;;;-1.94;nan
8501;BME280;4288;48.484;10.024;2023-02-15T03:14:53;96848.59;;;-1.85;nan
8501;BME280;4288;48.484;10.024;2023-02-15T03:17:23;96849.91;;;-1.77;nan
8501;BME280;4288;48.484;10.024;2023-02-15T03:19:59;96844.69;;;-1.88;nan
8501;BME280;4288;48.484;10.024;2023-02-15T03:22:31;96843.94;;;-1.98;nan
8501;BME280;4288;48.484;10.024;2023-02-15T03:25:07;96851.97;;;-1.74;nan
8501;BME280;4288;48.484;10.024;2023-02-15T03:27:40;96851.31;;;-2.05;nan
8501;BME280;4288;48.484;10.024;2023-02-15T03:30:11;96850.97;;;-1.84;nan
8501;BME280;4288;48.484;10.024;2023-02-15T03:32:41;96848.59;;;-1.85;nan
8501;BME280;4288;48.484;10.024;2023-02-15T03:35:11;96844.72;;;-1.98;nan
8501;BME280;4288;48.484;10.024;2023-02-15T03:37:42;96846.56;;;-1.98;nan
8501;BME280;4288;48.484;10.024;2023-02-15T03:40:19;96847.88;;;-1.96;nan
8501;BME280;4288;48.484;10.024;2023-02-15T03:43:12;96849.19;;;-2.03;nan
8501;BME280;4288;48.484;10.024;2023-02-15T03:45:45;96853.06;;;-1.86;nan
8501;BME280;4288;48.484;10.024;2023-02-15T03:48:26;96850.44;;;-1.86;nan
8501;BME280;4288;48.484;10.024;2023-02-15T03:51:00;96853.31;;;-1.82;nan
8501;BME280;4288;48.484;10.024;2023-02-15T03:53:49;96846.28;;;-1.92;nan
8501;BME280;4288;48.484;10.024;2023-02-15T03:56:17;96855.69;;;-1.91;nan
8501;BME280;4288;48.484;10.024;2023-02-15T03:58:44;96849.72;;;-2.01;nan
8501;BME280;4288;48.484;10.024;2023-02-15T04:01:34;96849.75;;;-2.16;nan
8501;BME280;4288;48.484;10.024;2023-02-15T04:04:39;96845.25;;;-2.01;100.00
8501;BME280;4288;48.484;10.024;2023-02-15T04:07:09;96843.66;;;-1.92;100.00
8501;BME280;4288;48.484;10.024;2023-02-15T04:09:36;96842.88;;;-1.92;100.00
8501;BME280;4288;48.484;10.024;2023-02-15T04:12:21;96838.91;;;-1.79;100.00
8501;BME280;4288;48.484;10.024;2023-02-15T04:14:48;96843.09;;;-1.84;100.00
8501;BME280;4288;48.484;10.024;2023-02-15T04:17:33;96846.28;;;-1.92;100.00
8501;BME280;4288;48.484;10.024;2023-02-15T04:20:05;96853.59;;;-1.89;100.00
8501;BME280;4288;48.484;10.024;2023-02-15T04:22:49;96864.63;;;-1.92;100.00
8501;BME280;4288;48.484;10.024;2023-02-15T04:25:34;96858.31;;;-1.91;100.00
8501;BME280;4288;48.484;10.024;2023-02-15T04:28:01;96852.56;;;-1.93;100.00
8501;BME280;4288;48.484;10.024;2023-02-15T04:30:28;96848.13;;;-2.02;100.00
8501;BME280;4288;48.484;10.024;2023-02-15T04:32:55;96849.41;;;-1.95;100.00
8501;BME280;4288;48.484;10.024;2023-02-15T04:35:24;96853.59;;;-1.84;100.00
8501;BME280;4288;48.484;10.024;2023-02-15T04:37:52;96847.84;;;-1.91;100.00
8501;BME280;4288;48.484;10.024;2023-02-15T04:40:19;96850.97;;;-1.89;100.00
8501;BME280;4288;48.484;10.024;2023-02-15T04:42:47;96844.72;;;-1.98;100.00
8501;BME280;4288;48.484;10.024;2023-02-15T04:45:16;96840.50;;;-1.89;100.00
8501;BME280;4288;48.484;10.024;2023-02-15T04:47:43;96831.31;;;-1.91;100.00
8501;BME280;4288;48.484;10.024;2023-02-15T04:50:11;96834.78;;;-1.96;100.00
8501;BME280;4288;48.484;10.024;2023-02-15T04:52:39;96841.59;;;-2.00;100.00
8501;BME280;4288;48.484;10.024;2023-02-15T04:55:07;96836.09;;;-2.08;100.00
8501;BME280;4288;48.484;10.024;2023-02-15T04:57:34;96833.19;;;-1.97;100.00
8501;BME280;4288;48.484;10.024;2023-02-15T05:00:01;96830.59;;;-2.02;100.00
8501;BME280;4288;48.484;10.024;2023-02-15T05:02:28;96837.91;;;-1.99;100.00
8501;BME280;4288;48.484;10.024;2023-02-15T05:04:55;96828.47;;;-1.95;100.00
8501;BME280;4288;48.484;10.024;2023-02-15T05:07:23;96822.94;;;-1.88;100.00
8501;BME280;4288;48.484;10.024;2023-02-15T05:09:51;96820.34;;;-1.93;100.00
8501;BME280;4288;48.484;10.024;2023-02-15T05:12:18;96825.31;;;-1.97;100.00
8501;BME280;4288;48.484;10.024;2023-02-15T05:14:45;96830.31;;;-1.95;100.00
8501;BME280;4288;48.484;10.024;2023-02-15T05:17:12;96817.97;;;-1.95;100.00
8501;BME280;4288;48.484;10.024;2023-02-15T05:19:39;96825.28;;;-1.82;100.00
8501;BME280;4288;48.484;10.024;2023-02-15T05:22:06;96833.38;;;-1.78;100.00
8501;BME280;4288;48.484;10.024;2023-02-15T05:24:33;96836.81;;;-1.83;100.00
8501;BME280;4288;48.484;10.024;2023-02-15T05:27:19;96828.13;;;-1.73;100.00
8501;BME280;4288;48.484;10.024;2023-02-15T05:30:05;96833.13;;;-1.76;100.00
8501;BME280;4288;48.484;10.024;2023-02-15T05:32:37;96832.03;;;-1.75;100.00
8501;BME280;4288;48.484;10.024;2023-02-15T05:35:04;96829.69;;;-1.72;100.00
8501;BME280;4288;48.484;10.024;2023-02-15T05:37:32;96826.00;;;-1.71;100.00
8501;BME280;4288;48.484;10.024;2023-02-15T05:39:59;96824.47;;;-1.72;100.00
8501;BME280;4288;48.484;10.024;2023-02-15T05:42:27;96825.22;;;-1.66;100.00
8501;BME280;4288;48.484;10.024;2023-02-15T05:44:54;96831.47;;;-1.62;100.00
8501;BME280;4288;48.484;10.024;2023-02-15T05:47:21;96827.31;;;-1.68;100.00
8501;BME280;4288;48.484;10.024;2023-02-15T05:49:48;96829.38;;;-1.60;100.00
8501;BME280;4288;48.484;10.024;2023-02-15T05:52:15;96830.13;;;-1.60;100.00
8501;BME280;4288;48.484;10.024;2023-02-15T05:54:42;96825.41;;;-1.53;100.00
8501;BME280;4288;48.484;10.024;2023-02-15T05:57:10;96828.50;;;-1.46;100.00
8501;BME280;4288;48.484;10.024;2023-02-15T05:59:38;96830.66;;;-1.58;100.00
8501;BME280;4288;48.484;10.024;2023-02-15T06:02:05;96834.38;;;-1.64;100.00
8501;BME280;4288;48.484;10.024;2023-02-15T06:04:32;96840.94;;;-1.71;100.00
8501;BME280;4288;48.484;10.024;2023-02-15T06:06:59;96841.78;;;-1.81;100.00
8501;BME280;4288;48.484;10.024;2023-02-15T06:09:27;96838.88;;;-1.74;100.00
8501;BME280;4288;48.484;10.024;2023-02-15T06:11:54;96839.88;;;-1.65;100.00
8501;BME280;4288;48.484;10.024;2023-02-15T06:14:21;96841.72;;;-1.71;100.00
8501;BME280;4288;48.484;10.024;2023-02-15T06:16:50;96845.66;;;-1.68;100.00
8501;BME280;4288;48.484;10.024;2023-02-15T06:19:17;96848.75;;;-1.61;100.00
8501;BME280;4288;48.484;10.024;2023-02-15T06:21:44;96848.84;;;-1.76;100.00
8501;BME280;4288;48.484;10.024;2023-02-15T06:24:12;96848.88;;;-1.82;100.00
8501;BME280;4288;48.484;10.024;2023-02-15T06:26:39;96849.38;;;-1.79;100.00
8501;BME280;4288;48.484;10.024;2023-02-15T06:29:06;96854.09;;;-1.87;100.00
8501;BME280;4288;48.484;10.024;2023-02-15T06:31:33;96852.00;;;-1.85;100.00
8501;BME280;4288;48.484;10.024;2023-02-15T06:34:02;96853.91;;;-2.00;100.00
8501;BME280;4288;48.484;10.024;2023-02-15T06:36:29;96850.81;;;-2.17;100.00
8501;BME280;4288;48.484;10.024;2023-02-15T06:38:57;96851.31;;;-2.15;100.00
8501;BME280;4288;48.484;10.024;2023-02-15T06:41:24;96861.53;;;-2.24;100.00
8501;BME280;4288;48.484;10.024;2023-02-15T06:43:51;96847.63;;;-2.14;100.00
8501;BME280;4288;48.484;10.024;2023-02-15T06:46:18;96859.44;;;-2.17;100.00
8501;BME280;4288;48.484;10.024;2023-02-15T06:48:45;96852.13;;;-2.20;100.00
8501;BME280;4288;48.484;10.024;2023-02-15T06:51:14;96852.13;;;-2.15;100.00
8501;BME280;4288;48.484;10.024;2023-02-15T06:53:41;96860.25;;;-2.21;100.00
8501;BME280;4288;48.484;10.024;2023-02-15T06:56:09;96864.16;;;-2.24;100.00
8501;BME280;4288;48.484;10.024;2023-02-15T06:58:37;96859.16;;;-2.05;100.00
8501;BME280;4288;48.484;10.024;2023-02-15T07:01:05;96853.16;;;-2.16;100.00
8501;BME280;4288;48.484;10.024;2023-02-15T07:03:33;96857.88;;;-2.13;100.00
8501;BME280;4288;48.484;10.024;2023-02-15T07:06:02;96863.59;;;-2.06;100.00
8501;BME280;4288;48.484;10.024;2023-02-15T07:08:33;96869.88;;;-2.02;100.00
8501;BME280;4288;48.484;10.024;2023-02-15T07:11:00;96865.94;;;-2.04;100.00
8501;BME280;4288;48.484;10.024;2023-02-15T07:13:41;96865.13;;;-1.95;100.00
8501;BME280;4288;48.484;10.024;2023-02-15T07:16:09;96857.06;;;-2.08;100.00
8501;BME280;4288;48.484;10.024;2023-02-15T07:18:37;96862.03;;;-2.02;100.00
8501;BME280;4288;48.484;10.024;2023-02-15T07:21:04;96858.84;;;-1.99;100.00
8501;BME280;4288;48.484;10.024;2023-02-15T07:23:35;96871.66;;;-1.87;100.00
8501;BME280;4288;48.484;10.024;2023-02-15T07:26:02;96866.13;;;-1.81;100.00
8501;BME280;4288;48.484;10.024;2023-02-15T07:28:30;96861.97;;;-1.82;100.00
8501;BME280;4288;48.484;10.024;2023-02-15T07:30:57;96865.06;;;-1.74;100.00
8501;BME280;4288;48.484;10.024;2023-02-15T07:33:24;96865.84;;;-1.69;100.00
8501;BME280;4288;48.484;10.024;2023-02-15T07:35:55;96872.41;;;-1.76;100.00
8501;BME280;4288;48.484;10.024;2023-02-15T07:38:24;96864.78;;;-1.73;100.00
8501;BME280;4288;48.484;10.024;2023-02-15T07:40:58;96861.91;;;-1.71;100.00
8501;BME280;4288;48.484;10.024;2023-02-15T07:43:25;96867.41;;;-1.73;100.00
8501;BME280;4288;48.484;10.024;2023-02-15T07:45:52;96865.13;;;-1.90;100.00
8501;BME280;4288;48.484;10.024;2023-02-15T07:48:19;96862.22;;;-1.83;100.00
8501;BME280;4288;48.484;10.024;2023-02-15T07:50:46;96861.91;;;-1.71;100.00
8501;BME280;4288;48.484;10.024;2023-02-15T07:53:13;96857.72;;;-1.72;100.00
8501;BME280;4288;48.484;10.024;2023-02-15T07:55:41;96863.69;;;-1.57;100.00
8501;BME280;4288;48.484;10.024;2023-02-15T07:58:09;96855.34;;;-1.69;100.00
8501;BME280;4288;48.484;10.024;2023-02-15T08:00:36;96856.34;;;-1.55;100.00
8501;BME280;4288;48.484;10.024;2023-02-15T08:03:23;96847.16;;;-1.52;100.00
8501;BME280;4288;48.484;10.024;2023-02-15T08:05:56;96849.19;;;-1.39;100.00
8501;BME280;4288;48.484;10.024;2023-02-15T08:08:25;96850.50;;;-1.37;100.00
8501;BME280;4288;48.484;10.024;2023-02-15T08:11:00;96848.66;;;-1.41;100.00
8501;BME280;4288;48.484;10.024;2023-02-15T08:13:48;96848.06;;;-1.28;100.00
8501;BME280;4288;48.484;10.024;2023-02-15T08:16:27;96853.00;;;-1.22;100.00
8501;BME280;4288;48.484;10.024;2023-02-15T08:18:54;96853.47;;;-1.15;100.00
8501;BME280;4288;48.484;10.024;2023-02-15T08:21:22;96848.28;;;-1.25;100.00
8501;BME280;4288;48.484;10.024;2023-02-15T08:23:50;96844.81;;;-1.10;100.00
8501;BME280;4288;48.484;10.024;2023-02-15T08:26:17;96851.59;;;-1.04;100.00
8501;BME280;4288;48.484;10.024;2023-02-15T08:28:46;96839.72;;;-0.97;100.00
8501;BME280;4288;48.484;10.024;2023-02-15T08:31:15;96836.06;;;-1.01;100.00
8501;BME280;4288;48.484;10.024;2023-02-15T08:33:43;96836.28;;;-0.92;100.00
8501;BME280;4288;48.484;10.024;2023-02-15T08:36:13;96838.97;;;-1.02;100.00
8501;BME280;4288;48.484;10.024;2023-02-15T08:38:42;96834.00;;;-1.04;100.00
8501;BME280;4288;48.484;10.024;2023-02-15T08:41:15;96833.00;;;-1.08;100.00
8501;BME280;4288;48.484;10.024;2023-02-15T08:43:43;96827.63;;;-1.31;100.00
8501;BME280;4288;48.484;10.024;2023-02-15T08:46:12;96827.81;;;-1.18;100.00
8501;BME280;4288;48.484;10.024;2023-02-15T08:48:40;96839.34;;;-1.19;100.00
8501;BME280;4288;48.484;10.024;2023-02-15T08:51:10;96829.13;;;-1.15;100.00
8501;BME280;4288;48.484;10.024;2023-02-15T08:53:38;96828.50;;;-1.02;100.00
8501;BME280;4288;48.484;10.024;2023-02-15T08:56:06;96831.63;;;-1.00;100.00
8501;BME280;4288;48.484;10.024;2023-02-15T08:58:34;96831.13;;;-0.73;100.00
8501;BME280;4288;48.484;10.024;2023-02-15T09:01:08;96833.09;;;-0.55;100.00
8501;BME280;4288;48.484;10.024;2023-02-15T09:03:37;96831.19;;;-0.50;100.00
8501;BME280;4288;48.484;10.024;2023-02-15T09:06:05;96825.94;;;-0.50;100.00
8501;BME280;4288;48.484;10.024;2023-02-15T09:08:32;96833.13;;;-0.60;100.00
8501;BME280;4288;48.484;10.024;2023-02-15T09:11:08;96831.94;;;-0.44;100.00
8501;BME280;4288;48.484;10.024;2023-02-15T09:13:36;96831.94;;;-0.44;100.00
8501;BME280;4288;48.484;10.024;2023-02-15T09:16:05;96833.13;;;-0.60;100.00
8501;BME280;4288;48.484;10.024;2023-02-15T09:18:35;96835.22;;;-0.57;100.00
8501;BME280;4288;48.484;10.024;2023-02-15T09:21:10;96825.94;;;-0.50;100.00
8501;BME280;4288;48.484;10.024;2023-02-15T09:23:39;96827.84;;;-0.55;100.00
8501;BME280;4288;48.484;10.024;2023-02-15T09:26:10;96819.84;;;-0.17;100.00
8501;BME280;4288;48.484;10.024;2023-02-15T09:28:38;96824.09;;;0.03;100.00
8501;BME280;4288;48.484;10.024;2023-02-15T09:31:08;96820.72;;;-0.03;100.00
8501;BME280;4288;48.484;10.024;2023-02-15T09:33:37;96822.31;;;-0.54;100.00
8501;BME280;4288;48.484;10.024;2023-02-15T09:36:14;96823.81;;;-0.48;100.00
8501;BME280;4288;48.484;10.024;2023-02-15T09:38:42;96821.00;;;-0.28;100.00
8501;BME280;4288;48.484;10.024;2023-02-15T09:41:31;96827.53;;;-0.25;100.00
8501;BME280;4288;48.484;10.024;2023-02-15T09:44:15;96828.63;;;-0.03;100.00
8501;BME280;4288;48.484;10.024;2023-02-15T09:47:02;96815.44;;;0.45;100.00
8501;BME280;4288;48.484;10.024;2023-02-15T09:49:38;96825.75;;;0.18;100.00
8501;BME280;4288;48.484;10.024;2023-02-15T09:52:45;96823.97;;;-0.11;100.00
8501;BME280;4288;48.484;10.024;2023-02-15T09:58:13;96817.19;;;0.86;100.00
8501;BME280;4288;48.484;10.024;2023-02-15T10:00:50;96820.19;;;0.61;100.00
8501;BME280;4288;48.484;10.024;2023-02-15T10:03:37;96824.13;;;0.64;100.00
8501;BME280;4288;48.484;10.024;2023-02-15T10:06:28;96822.97;;;0.70;100.00
8501;BME280;4288;48.484;10.024;2023-02-15T10:09:26;96823.47;;;0.72;100.00
8501;BME280;4288;48.484;10.024;2023-02-15T10:12:28;96817.75;;;1.21;100.00
8501;BME280;4288;48.484;10.024;2023-02-15T10:15:24;96820.28;;;1.26;100.00
8501;BME280;4288;48.484;10.024;2023-02-15T10:18:10;96826.59;;;1.11;100.00
8501;BME280;4288;48.484;10.024;2023-02-15T10:20:55;96824.84;;;1.02;100.00
8501;BME280;4288;48.484;10.024;2023-02-15T10:23:45;96813.31;;;1.16;100.00
8501;BME280;4288;48.484;10.024;2023-02-15T10:26:20;96808.47;;;1.23;100.00
8501;BME280;4288;48.484;10.024;2023-02-15T10:28:50;96811.44;;;1.35;100.00
8501;BME280;4288;48.484;10.024;2023-02-15T10:31:25;96814.34;;;1.34;100.00
8501;BME280;4288;48.484;10.024;2023-02-15T10:34:12;96808.78;;;1.35;100.00
8501;BME280;4288;48.484;10.024;2023-02-15T10:39:47;96813.22;;;1.40;100.00
8501;BME280;4288;48.484;10.024;2023-02-15T10:42:30;96810.59;;;1.21;100.00
8501;BME280;4288;48.484;10.024;2023-02-15T10:45:12;96799.09;;;1.63;100.00
8501;BME280;4288;48.484;10.024;2023-02-15T10:48:11;96798.72;;;1.56;100.00
8501;BME280;4288;48.484;10.024;2023-02-15T10:50:48;96795.88;;;1.20;100.00
8501;BME280;4288;48.484;10.024;2023-02-15T10:53:45;96787.66;;;1.08;100.00
8501;BME280;4288;48.484;10.024;2023-02-15T10:56:24;96787.94;;;1.07;100.00
8501;BME280;4288;48.484;10.024;2023-02-15T10:59:19;96793.16;;;1.57;100.00
8501;BME280;4288;48.484;10.024;2023-02-15T11:01:55;96785.03;;;1.54;100.00
8501;BME280;4288;48.484;10.024;2023-02-15T11:04:48;96782.00;;;1.47;100.00
8501;BME280;4288;48.484;10.024;2023-02-15T11:07:22;96777.22;;;1.62;100.00
8501;BME280;4288;48.484;10.024;2023-02-15T11:09:56;96776.97;;;2.05;100.00
8501;BME280;4288;48.484;10.024;2023-02-15T11:12:29;96768.00;;;2.77;100.00
8501;BME280;4288;48.484;10.024;2023-02-15T11:15:04;96760.28;;;3.03;100.00
8501;BME280;4288;48.484;10.024;2023-02-15T11:17:43;96765.06;;;3.45;100.00
8501;BME280;4288;48.484;10.024;2023-02-15T11:20:23;96761.38;;;3.02;100.00
8501;BME280;4288;48.484;10.024;2023-02-15T11:22:53;96762.84;;;2.36;100.00
8501;BME280;4288;48.484;10.024;2023-02-15T11:25:25;96755.78;;;1.96;100.00
8501;BME280;4288;48.484;10.024;2023-02-15T11:27:53;96756.06;;;2.08;100.00
8501;BME280;4288;48.484;10.024;2023-02-15T11:30:26;96753.94;;;1.83;100.00
8501;BME280;4288;48.484;10.024;2023-02-15T11:32:58;96748.56;;;2.51;100.00
8501;BME280;4288;48.484;10.024;2023-02-15T11:35:31;96745.63;;;2.97;100.00
8501;BME280;4288;48.484;10.024;2023-02-15T11:38:07;96743.22;;;3.09;100.00
8501;BME280;4288;48.484;10.024;2023-02-15T11:40:44;96752.38;;;2.81;100.00
8501;BME280;4288;48.484;10.024;2023-02-15T11:43:17;96749.03;;;2.53;100.00
8501;BME280;4288;48.484;10.024;2023-02-15T11:45:50;96744.25;;;3.21;100.00
8501;BME280;4288;48.484;10.024;2023-02-15T11:48:17;96739.72;;;2.33;100.00
8501;BME280;4288;48.484;10.024;2023-02-15T11:50:44;96734.81;;;2.27;100.00
8501;BME280;4288;48.484;10.024;2023-02-15T11:53:14;96742.16;;;2.30;100.00
8501;BME280;4288;48.484;10.024;2023-02-15T11:55:44;96737.03;;;2.47;100.00
8501;BME280;4288;48.484;10.024;2023-02-15T11:58:23;96738.00;;;2.95;100.00
8501;BME280;4288;48.484;10.024;2023-02-15T12:01:00;96729.47;;;3.20;100.00
8501;BME280;4288;48.484;10.024;2023-02-15T12:03:39;96732.16;;;3.29;100.00
8501;BME280;4288;48.484;10.024;2023-02-15T12:06:17;96730.97;;;3.43;100.00
8501;BME280;4288;48.484;10.024;2023-02-15T12:08:56;96719.81;;;3.46;100.00
8501;BME280;4288;48.484;10.024;2023-02-15T12:11:33;96719.19;;;3.89;100.00
8501;BME280;4288;48.484;10.024;2023-02-15T12:14:04;96710.72;;;4.26;100.00
8501;BME280;4288;48.484;10.024;2023-02-15T12:16:41;96717.09;;;4.25;100.00
8501;BME280;4288;48.484;10.024;2023-02-15T12:19:24;96710.38;;;4.27;100.00
8501;BME280;4288;48.484;10.024;2023-02-15T12:21:53;96712.66;;;3.95;100.00
8501;BME280;4288;48.484;10.024;2023-02-15T12:24:24;96706.28;;;3.87;100.00
8501;BME280;4288;48.484;10.024;2023-02-15T12:26:59;96709.19;;;3.69;100.00
8501;BME280;4288;48.484;10.024;2023-02-15T12:29:29;96707.00;;;4.27;100.00
8501;BME280;4288;48.484;10.024;2023-02-15T12:31:59;96705.28;;;4.48;100.00
8501;BME280;4288;48.484;10.024;2023-02-15T12:34:30;96703.56;;;4.78;100.00
8501;BME280;4288;48.484;10.024;2023-02-15T12:37:07;96698.88;;;4.75;100.00
8501;BME280;4288;48.484;10.024;2023-02-15T12:39:35;96692.03;;;4.39;100.00
8501;BME280;4288;48.484;10.024;2023-02-15T12:42:13;96699.34;;;4.17;100.00
8501;BME280;4288;48.484;10.024;2023-02-15T12:44:55;96696.25;;;4.66;100.00
8501;BME280;4288;48.484;10.024;2023-02-15T12:50:22;96686.28;;;6.31;nan
8501;BME280;4288;48.484;10.024;2023-02-15T12:53:06;96682.16;;;6.63;nan
8501;BME280;4288;48.484;10.024;2023-02-15T12:55:34;96678.94;;;6.90;nan
8501;BME280;4288;48.484;10.024;2023-02-15T12:58:14;96679.97;;;8.66;nan
8501;BME280;4288;48.484;10.024;2023-02-15T13:00:43;96674.63;;;10.00;nan
8501;BME280;4288;48.484;10.024;2023-02-15T13:03:19;96666.56;;;9.49;nan
8501;BME280;4288;48.484;10.024;2023-02-15T13:05:50;96664.41;;;9.55;nan
8501;BME280;4288;48.484;10.024;2023-02-15T13:08:21;96669.84;;;10.24;nan
8501;BME280;4288;48.484;10.024;2023-02-15T13:10:55;96654.69;;;10.47;nan
8501;BME280;4288;48.484;10.024;2023-02-15T13:13:26;96660.81;;;10.67;nan
8501;BME280;4288;48.484;10.024;2023-02-15T13:15:59;96654.25;;;11.67;nan
8501;BME280;4288;48.484;10.024;2023-02-15T13:18:45;96660.72;;;9.59;nan
8501;BME280;4288;48.484;10.024;2023-02-15T13:21:15;96642.34;;;11.87;nan
8501;BME280;4288;48.484;10.024;2023-02-15T13:23:48;96653.69;;;12.03;nan
8501;BME280;4288;48.484;10.024;2023-02-15T13:26:20;96645.16;;;11.98;nan
8501;BME280;4288;48.484;10.024;2023-02-15T13:28:51;96646.78;;;12.28;nan
8501;BME280;4288;48.484;10.024;2023-02-15T13:31:23;96636.38;;;11.29;nan
8501;BME280;4288;48.484;10.024;2023-02-15T13:33:56;96625.97;;;11.47;nan
8501;BME280;4288;48.484;10.024;2023-02-15T13:36:31;96627.72;;;11.58;nan
8501;BME280;4288;48.484;10.024;2023-02-15T13:39:15;96636.97;;;10.58;nan
8501;BME280;4288;48.484;10.024;2023-02-15T13:41:53;96633.47;;;11.15;nan
8501;BME280;4288;48.484;10.024;2023-02-15T13:44:47;96635.44;;;11.18;nan
8501;BME280;4288;48.484;10.024;2023-02-15T13:47:23;96640.50;;;10.43;nan
8501;BME280;4288;48.484;10.024;2023-02-15T13:50:06;96634.59;;;9.68;nan
8501;BME280;4288;48.484;10.024;2023-02-15T13:52:45;96637.44;;;9.75;nan